createdAt,value
2018-07-13T00:00:06.898Z,15.12
2018-07-13T00:02:37.325Z,15.10
2018-07-13T00:05:07.160Z,15.07
2018-07-13T00:07:37.194Z,15.04
2018-07-13T00:10:06.321Z,15.05
2018-07-13T00:12:36.679Z,15.04
2018-07-13T00:15:09.264Z,14.98
2018-07-13T00:17:39.697Z,14.99
2018-07-13T00:20:10.625Z,15.02
2018-07-13T00:35:35.996Z,15.09
2018-07-13T00:38:06.752Z,14.87
2018-07-13T00:40:36.351Z,14.88
2018-07-13T00:43:05.819Z,14.88
2018-07-13T00:45:36.943Z,14.86
2018-07-13T00:48:06.314Z,14.82
2018-07-13T00:50:36.387Z,14.78
2018-07-13T00:53:06.778Z,14.74
2018-07-13T00:55:37.212Z,14.70
2018-07-13T00:58:06.506Z,14.70
2018-07-13T01:00:35.614Z,14.72
2018-07-13T01:03:04.890Z,14.70
2018-07-13T01:05:35.631Z,14.68
2018-07-13T01:08:06.114Z,14.68
2018-07-13T01:10:36.868Z,14.65
2018-07-13T01:13:06.440Z,14.59
2018-07-13T01:15:37.050Z,14.58
2018-07-13T01:18:06.475Z,14.56
2018-07-13T01:20:36.852Z,14.57
2018-07-13T01:23:07.166Z,14.58
2018-07-13T01:25:37.945Z,14.57
2018-07-13T01:28:08.089Z,14.55
2018-07-13T01:30:38.317Z,14.53
2018-07-13T01:33:07.400Z,14.52
2018-07-13T01:35:36.479Z,14.49
2018-07-13T01:38:07.312Z,14.48
2018-07-13T01:40:36.771Z,14.40
2018-07-13T01:43:07.114Z,14.34
2018-07-13T01:45:37.971Z,14.30
2018-07-13T01:48:08.005Z,14.21
2018-07-13T01:50:38.397Z,14.18
2018-07-13T01:53:08.817Z,14.17
2018-07-13T01:55:38.797Z,14.14
2018-07-13T01:58:08.624Z,14.10
2018-07-13T02:00:38.866Z,14.08
2018-07-13T02:03:08.850Z,14.06
2018-07-13T02:05:39.656Z,14.06
2018-07-13T02:08:09.777Z,14.04
2018-07-13T02:10:39.402Z,14.03
2018-07-13T02:13:08.515Z,13.92
2018-07-13T02:15:37.524Z,13.90
2018-07-13T02:18:07.390Z,13.88
2018-07-13T02:20:37.740Z,13.74
2018-07-13T02:23:08.213Z,13.71
2018-07-13T02:25:38.689Z,13.72
2018-07-13T02:28:08.005Z,13.70
2018-07-13T02:30:37.120Z,13.69
2018-07-13T02:33:07.118Z,13.68
2018-07-13T02:35:36.151Z,13.67
2018-07-13T02:38:06.087Z,13.64
2018-07-13T02:40:35.690Z,13.54
2018-07-13T02:43:06.217Z,13.55
2018-07-13T02:45:36.705Z,13.54
2018-07-13T02:48:06.091Z,13.47
2018-07-13T02:50:36.439Z,13.47
2018-07-13T02:53:05.940Z,13.47
2018-07-13T02:55:35.949Z,13.51
2018-07-13T02:58:06.052Z,13.51
2018-07-13T03:00:35.292Z,13.49
2018-07-13T03:03:05.751Z,13.49
2018-07-13T03:05:35.964Z,13.46
2018-07-13T03:08:05.010Z,13.42
2018-07-13T03:10:34.677Z,13.42
2018-07-13T03:13:05.086Z,13.39
2018-07-13T03:15:34.913Z,13.40
2018-07-13T03:18:05.385Z,13.40
2018-07-13T03:20:36.355Z,13.32
2018-07-13T03:23:06.451Z,13.31
2018-07-13T03:25:36.863Z,13.35
2018-07-13T03:28:07.403Z,13.35
2018-07-13T03:30:38.020Z,13.36
2018-07-13T03:33:07.011Z,13.37
2018-07-13T03:35:37.535Z,13.36
2018-07-13T03:38:06.541Z,13.34
2018-07-13T03:40:37.284Z,13.36
2018-07-13T03:43:07.893Z,13.38
2018-07-13T03:45:36.917Z,13.38
2018-07-13T03:48:07.222Z,13.34
2018-07-13T03:50:37.695Z,13.32
2018-07-13T03:53:07.524Z,13.32
2018-07-13T03:55:36.709Z,13.29
2018-07-13T03:58:07.278Z,13.28
2018-07-13T04:00:36.603Z,13.25
2018-07-13T04:03:06.882Z,13.28
2018-07-13T04:05:37.520Z,13.30
2018-07-13T04:08:07.144Z,13.29
2018-07-13T04:10:37.799Z,13.23
2018-07-13T04:13:08.599Z,13.22
2018-07-13T04:15:39.327Z,13.14
2018-07-13T04:18:12.837Z,13.16
2018-07-13T04:20:43.307Z,13.20
2018-07-13T04:23:12.775Z,13.22
2018-07-13T04:25:42.590Z,13.23
2018-07-13T04:28:11.765Z,13.26
2018-07-13T04:30:42.661Z,13.32
2018-07-13T04:33:12.372Z,13.40
2018-07-13T04:35:43.446Z,13.43
2018-07-13T04:38:14.153Z,13.50
2018-07-13T04:40:44.600Z,13.57
2018-07-13T04:43:13.721Z,13.59
2018-07-13T04:45:44.573Z,13.63
2018-07-13T04:48:14.100Z,13.73
2018-07-13T04:50:43.499Z,13.79
2018-07-13T04:53:14.069Z,13.88
2018-07-13T04:55:43.461Z,13.86
2018-07-13T04:58:14.187Z,13.85
2018-07-13T05:00:44.207Z,13.91
2018-07-13T05:03:14.984Z,14.01
2018-07-13T05:05:44.165Z,14.06
2018-07-13T05:08:13.241Z,14.11
2018-07-13T05:10:42.772Z,14.20
2018-07-13T05:13:13.285Z,14.25
2018-07-13T05:15:42.793Z,14.35
2018-07-13T05:18:13.100Z,14.38
2018-07-13T05:20:57.879Z,14.44
2018-07-13T05:23:26.884Z,14.54
2018-07-13T05:25:57.496Z,14.61
2018-07-13T05:28:27.742Z,14.66
2018-07-13T05:30:58.031Z,14.76
2018-07-13T05:33:28.768Z,14.82
2018-07-13T05:35:58.501Z,14.89
2018-07-13T05:38:27.915Z,14.98
2018-07-13T05:40:56.983Z,15.09
2018-07-13T05:43:27.598Z,15.19
2018-07-13T05:45:57.366Z,15.25
2018-07-13T05:48:27.551Z,15.34
2018-07-13T05:50:57.849Z,15.41
2018-07-13T05:53:28.263Z,15.46
2018-07-13T05:55:58.857Z,15.56
2018-07-13T05:58:28.030Z,15.66
2018-07-13T06:00:57.106Z,15.78
2018-07-13T06:03:27.412Z,15.86
2018-07-13T06:05:57.894Z,15.93
2018-07-13T06:08:28.599Z,16.00
2018-07-13T06:10:59.596Z,16.08
2018-07-13T06:13:28.729Z,16.18
2018-07-13T06:15:58.104Z,16.30
2018-07-13T06:18:28.089Z,16.44
2018-07-13T06:20:58.722Z,16.55
2018-07-13T06:23:28.150Z,16.63
2018-07-13T06:25:58.898Z,16.74
2018-07-13T06:28:30.078Z,16.84
2018-07-13T06:30:59.116Z,16.95
2018-07-13T06:33:28.900Z,17.04
2018-07-13T06:35:58.355Z,17.13
2018-07-13T06:38:28.324Z,17.20
2018-07-13T06:40:58.824Z,17.29
2018-07-13T06:43:30.585Z,17.38
2018-07-13T06:46:01.110Z,17.52
2018-07-13T06:48:31.716Z,17.61
2018-07-13T06:51:00.779Z,17.74
2018-07-13T06:53:29.940Z,17.87
2018-07-13T06:55:59.558Z,17.97
2018-07-13T06:58:40.492Z,18.09
2018-07-13T07:01:10.048Z,18.12
2018-07-13T07:04:43.347Z,18.20
2018-07-13T07:07:27.688Z,18.32
2018-07-13T07:09:58.073Z,18.42
2018-07-13T07:13:07.480Z,18.54
2018-07-13T07:15:37.591Z,18.63
2018-07-13T07:18:07.322Z,18.72
2018-07-13T07:20:37.574Z,18.87
2018-07-13T07:23:08.531Z,18.99
2018-07-13T07:25:38.034Z,19.05
2018-07-13T07:28:08.118Z,19.22
2018-07-13T07:30:38.880Z,19.30
2018-07-13T07:33:09.541Z,19.46
2018-07-13T07:35:38.563Z,19.59
2018-07-13T07:38:08.019Z,19.70
2018-07-13T07:40:39.770Z,19.77
2018-07-13T07:43:10.269Z,19.83
2018-07-13T07:45:40.646Z,19.94
2018-07-13T07:48:09.730Z,20.16
2018-07-13T07:50:39.752Z,20.25
2018-07-13T07:53:10.480Z,20.33
2018-07-13T07:55:40.246Z,20.45
2018-07-13T07:58:10.756Z,20.53
2018-07-13T08:00:41.452Z,20.56
2018-07-13T08:03:10.934Z,20.65
2018-07-13T08:05:40.400Z,20.70
2018-07-13T08:08:10.435Z,20.89
2018-07-13T08:10:41.012Z,21.05
2018-07-13T08:13:10.189Z,21.23
2018-07-13T08:15:39.663Z,21.49
2018-07-13T08:18:10.427Z,21.73
2018-07-13T08:20:45.543Z,21.73
2018-07-13T08:23:15.303Z,21.70
2018-07-13T08:25:48.909Z,21.64
2018-07-13T08:28:20.306Z,21.69
2018-07-13T08:30:53.218Z,21.89
2018-07-13T08:33:22.575Z,21.93
2018-07-13T08:35:51.631Z,22.02
2018-07-13T08:38:21.628Z,22.02
2018-07-13T08:53:46.231Z,21.98
2018-07-13T08:56:16.814Z,22.73
2018-07-13T08:58:45.924Z,22.81
2018-07-13T09:01:14.955Z,22.78
2018-07-13T09:03:45.686Z,22.66
2018-07-13T09:06:14.752Z,22.55
2018-07-13T09:08:44.604Z,22.44
2018-07-13T09:11:13.650Z,22.36
2018-07-13T09:13:42.967Z,22.38
2018-07-13T09:16:13.309Z,22.50
2018-07-13T09:18:43.974Z,22.64
2018-07-13T09:21:14.321Z,22.82
2018-07-13T09:23:44.833Z,22.93
2018-07-13T09:26:13.890Z,23.17
2018-07-13T09:28:43.273Z,23.35
2018-07-13T09:31:14.021Z,23.44
2018-07-13T09:33:43.129Z,23.51
2018-07-13T09:36:12.793Z,23.57
2018-07-13T09:38:42.094Z,23.51
2018-07-13T09:54:06.658Z,23.40
2018-07-13T09:56:36.640Z,23.90
2018-07-13T09:59:06.052Z,24.01
2018-07-13T10:01:36.358Z,24.04
2018-07-13T10:04:06.331Z,24.05
2018-07-13T10:06:35.419Z,24.19
2018-07-13T10:09:05.076Z,24.16
2018-07-13T10:11:34.547Z,24.00
2018-07-13T10:14:05.153Z,23.80
2018-07-13T10:16:34.597Z,23.63
2018-07-13T10:19:05.403Z,23.48
2018-07-13T10:21:37.650Z,23.39
2018-07-13T10:24:07.826Z,23.45
2018-07-13T10:26:38.247Z,23.57
2018-07-13T10:29:17.500Z,23.69
2018-07-13T10:31:48.066Z,23.90
2018-07-13T10:34:19.489Z,24.11
2018-07-13T10:36:52.674Z,24.25
2018-07-13T10:39:23.580Z,24.44
2018-07-13T10:41:54.277Z,24.66
2018-07-13T10:44:24.750Z,24.78
2018-07-13T10:46:55.396Z,24.83
2018-07-13T10:49:26.159Z,24.78
2018-07-13T10:51:56.844Z,24.78
2018-07-13T10:54:27.188Z,24.85
2018-07-13T10:56:57.790Z,25.01
2018-07-13T10:59:28.031Z,25.11
2018-07-13T11:01:58.704Z,25.13
2018-07-13T11:04:30.034Z,24.88
2018-07-13T11:07:00.048Z,24.77
2018-07-13T11:09:30.079Z,24.86
2018-07-13T11:12:01.050Z,25.07
2018-07-13T11:14:31.410Z,25.21
2018-07-13T11:17:02.273Z,25.24
2018-07-13T11:19:33.071Z,25.29
2018-07-13T11:22:03.881Z,25.40
2018-07-13T11:24:34.476Z,25.57
2018-07-13T11:27:05.116Z,25.76
2018-07-13T11:29:35.775Z,25.81
2018-07-13T11:32:06.079Z,25.67
2018-07-13T11:34:36.901Z,25.73
2018-07-13T11:37:06.487Z,25.93
2018-07-13T11:39:36.703Z,26.08
2018-07-13T11:42:07.049Z,26.01
2018-07-13T11:44:37.545Z,26.00
2018-07-13T11:47:08.288Z,26.07
2018-07-13T11:49:38.220Z,25.79
2018-07-13T11:52:07.529Z,25.79
2018-07-13T11:54:37.802Z,25.93
2018-07-13T11:57:07.761Z,25.99
2018-07-13T11:59:38.471Z,26.09
2018-07-13T12:02:09.515Z,26.05
2018-07-13T12:04:38.702Z,26.06
2018-07-13T12:07:09.374Z,26.28
2018-07-13T12:09:40.010Z,26.53
2018-07-13T12:12:09.248Z,26.73
2018-07-13T12:14:39.912Z,26.76
2018-07-13T12:17:10.621Z,26.75
2018-07-13T12:19:39.817Z,26.73
2018-07-13T12:22:10.333Z,26.45
2018-07-13T12:24:40.955Z,26.18
2018-07-13T12:27:10.306Z,26.01
2018-07-13T12:29:40.705Z,25.83
2018-07-13T12:32:11.171Z,25.94
2018-07-13T12:34:40.513Z,26.24
2018-07-13T12:37:10.216Z,26.60
2018-07-13T12:39:41.263Z,26.93
2018-07-13T12:42:10.531Z,27.16
2018-07-13T12:44:39.786Z,27.33
2018-07-13T12:47:10.643Z,27.41
2018-07-13T12:49:41.257Z,27.48
2018-07-13T12:52:10.274Z,27.52
2018-07-13T12:54:41.380Z,27.29
2018-07-13T12:57:11.060Z,27.33
2018-07-13T12:59:40.370Z,27.57
2018-07-13T13:02:09.586Z,27.40
2018-07-13T13:17:33.949Z,27.22
2018-07-13T13:20:04.409Z,27.09
2018-07-13T13:22:34.797Z,27.05
2018-07-13T13:25:03.858Z,27.33
2018-07-13T13:27:33.510Z,27.61
2018-07-13T13:30:04.253Z,27.76
2018-07-13T13:32:33.558Z,27.86
2018-07-13T13:35:04.022Z,28.07
2018-07-13T13:37:34.401Z,28.25
2018-07-13T13:40:04.031Z,28.07
2018-07-13T13:42:34.745Z,28.21
2018-07-13T13:45:05.441Z,28.47
2018-07-13T13:47:35.561Z,28.80
2018-07-13T13:50:05.058Z,29.06
2018-07-13T13:52:34.144Z,28.91
2018-07-13T13:55:04.055Z,28.72
2018-07-13T13:57:34.768Z,28.97
2018-07-13T14:00:03.923Z,29.30
2018-07-13T14:02:34.574Z,29.56
2018-07-13T14:05:03.682Z,29.75
2018-07-13T14:07:33.585Z,29.98
2018-07-13T14:10:04.326Z,30.02
2018-07-13T14:12:34.697Z,30.42
2018-07-13T14:15:05.328Z,30.91
2018-07-13T14:17:35.006Z,31.25
2018-07-13T14:20:06.092Z,31.58
2018-07-13T14:22:35.206Z,32.19
2018-07-13T14:25:05.123Z,32.57
2018-07-13T14:27:34.896Z,32.99
2018-07-13T14:30:04.563Z,33.25
2018-07-13T14:32:34.479Z,33.27
2018-07-13T14:35:04.009Z,32.16
2018-07-13T14:37:33.413Z,31.46
2018-07-13T14:40:02.564Z,31.13
2018-07-13T14:42:31.654Z,31.71
2018-07-13T14:45:00.787Z,32.28
2018-07-13T14:47:32.465Z,32.62
2018-07-13T14:50:03.187Z,32.72
2018-07-13T14:52:32.546Z,33.17
2018-07-13T14:55:02.321Z,33.40
2018-07-13T14:57:31.715Z,33.67
2018-07-13T15:00:01.383Z,33.53
2018-07-13T15:02:31.940Z,33.55
2018-07-13T15:05:01.328Z,33.90
2018-07-13T15:07:31.633Z,33.80
2018-07-13T15:10:02.065Z,33.87
2018-07-13T15:12:32.211Z,34.12
2018-07-13T15:27:56.014Z,34.29
2018-07-13T15:30:26.765Z,33.97
2018-07-13T15:32:55.827Z,34.11
2018-07-13T15:35:26.436Z,34.30
2018-07-13T15:37:55.543Z,34.32
2018-07-13T15:40:26.176Z,34.33
2018-07-13T15:42:55.287Z,33.76
2018-07-13T15:45:25.145Z,33.52
2018-07-13T15:47:54.748Z,33.71
2018-07-13T15:50:25.169Z,33.91
2018-07-13T15:52:55.782Z,34.09
2018-07-13T15:55:29.585Z,34.06
2018-07-13T15:58:00.255Z,34.02
2018-07-13T16:00:30.598Z,33.99
2018-07-13T16:03:01.730Z,33.73
2018-07-13T16:05:32.167Z,33.77
2018-07-13T16:08:02.413Z,33.48
2018-07-13T16:10:32.118Z,33.36
2018-07-13T16:13:03.527Z,33.42
2018-07-13T16:15:33.829Z,33.28
2018-07-13T16:18:04.592Z,32.96
2018-07-13T16:20:35.899Z,32.53
2018-07-13T16:23:05.812Z,32.21
2018-07-13T16:25:35.285Z,32.01
2018-07-13T16:28:05.147Z,31.42
2018-07-13T16:30:34.337Z,31.09
2018-07-13T16:33:04.125Z,30.71
2018-07-13T16:35:34.016Z,30.17
2018-07-13T16:38:03.154Z,29.98
2018-07-13T16:40:34.614Z,29.67
2018-07-13T16:43:04.061Z,29.43
2018-07-13T16:45:33.231Z,29.28
2018-07-13T16:48:03.222Z,29.15
2018-07-13T16:50:33.853Z,28.96
2018-07-13T16:53:03.844Z,28.78
2018-07-13T16:55:33.791Z,28.66
2018-07-13T16:58:03.613Z,28.52
2018-07-13T17:00:33.809Z,28.47
2018-07-13T17:03:03.568Z,28.31
2018-07-13T17:05:33.778Z,28.07
2018-07-13T17:08:04.106Z,27.95
2018-07-13T17:10:35.189Z,27.85
2018-07-13T17:13:05.014Z,27.78
2018-07-13T17:15:34.130Z,27.67
2018-07-13T17:18:04.187Z,27.55
2018-07-13T17:20:34.663Z,27.43
2018-07-13T17:23:04.322Z,27.21
2018-07-13T17:25:34.604Z,27.09
2018-07-13T17:28:04.615Z,27.00
2018-07-13T17:30:35.739Z,26.91
2018-07-13T17:33:06.088Z,26.83
2018-07-13T17:35:36.420Z,26.69
2018-07-13T17:38:06.126Z,26.62
2018-07-13T17:40:36.611Z,26.59
2018-07-13T17:43:06.706Z,26.53
2018-07-13T17:45:36.116Z,26.40
2018-07-13T17:48:06.392Z,26.29
2018-07-13T17:50:36.733Z,26.17
2018-07-13T17:53:06.863Z,26.02
2018-07-13T17:55:37.820Z,25.88
2018-07-13T17:58:08.167Z,25.81
2018-07-13T18:00:38.243Z,25.68
2018-07-13T18:03:08.750Z,25.52
2018-07-13T18:05:39.337Z,25.54
2018-07-13T18:08:09.973Z,25.46
2018-07-13T18:10:40.581Z,25.36
2018-07-13T18:13:10.892Z,25.26
2018-07-13T18:15:39.964Z,25.19
2018-07-13T18:18:10.153Z,25.14
2018-07-13T18:20:40.696Z,25.09
2018-07-13T18:23:11.861Z,25.01
2018-07-13T18:25:42.548Z,24.86
2018-07-13T18:28:12.894Z,24.76
2018-07-13T18:30:43.229Z,24.68
2018-07-13T18:33:13.850Z,24.62
2018-07-13T18:35:43.664Z,24.53
2018-07-13T18:38:14.114Z,24.50
2018-07-13T18:40:44.131Z,24.49
2018-07-13T18:43:14.731Z,24.47
2018-07-13T18:45:45.366Z,24.41
2018-07-13T18:48:15.111Z,24.33
2018-07-13T18:50:45.228Z,24.25
2018-07-13T18:53:15.978Z,24.16
2018-07-13T18:55:46.794Z,24.06
2018-07-13T18:58:17.216Z,23.97
2018-07-13T19:00:47.136Z,23.90
2018-07-13T19:03:47.424Z,23.84
2018-07-13T19:06:17.814Z,23.74
2018-07-13T19:08:48.051Z,23.68
2018-07-13T19:11:18.539Z,23.60
2018-07-13T19:13:49.096Z,23.52
2018-07-13T19:16:19.538Z,23.45
2018-07-13T19:18:49.927Z,23.38
2018-07-13T19:21:18.975Z,23.29
2018-07-13T19:23:48.249Z,23.22
2018-07-13T19:26:17.381Z,23.16
2018-07-13T19:28:47.256Z,23.10
2018-07-13T19:31:17.971Z,23.04
2018-07-13T19:33:47.845Z,22.95
2018-07-13T19:36:17.067Z,22.87
2018-07-13T19:38:47.748Z,22.79
2018-07-13T19:41:18.518Z,22.70
2018-07-13T19:43:48.831Z,22.62
2018-07-13T19:46:19.037Z,22.51
2018-07-13T19:48:49.737Z,22.42
2018-07-13T19:51:20.181Z,22.29
2018-07-13T19:53:51.700Z,22.19
2018-07-13T19:56:23.471Z,22.08
2018-07-13T19:58:54.152Z,21.96
2018-07-13T20:01:24.590Z,21.88
2018-07-13T20:03:55.089Z,21.81
2018-07-13T20:06:25.466Z,21.75
2018-07-13T20:08:55.951Z,21.70
2018-07-13T20:11:26.140Z,21.64
2018-07-13T20:13:56.352Z,21.56
2018-07-13T20:16:26.691Z,21.49
2018-07-13T20:18:57.331Z,21.43
2018-07-13T20:21:26.708Z,21.39
2018-07-13T20:23:57.415Z,21.32
2018-07-13T20:26:28.062Z,21.25
2018-07-13T20:28:57.858Z,21.20
2018-07-13T20:31:27.869Z,21.15
2018-07-13T20:33:56.978Z,21.06
2018-07-13T20:36:27.250Z,21.02
2018-07-13T20:38:57.588Z,20.94
2018-07-13T20:41:27.745Z,20.90
2018-07-13T20:43:57.026Z,20.87
2018-07-13T20:46:26.403Z,20.87
2018-07-13T20:48:55.574Z,20.88
2018-07-13T20:51:25.517Z,20.89
2018-07-13T20:53:57.443Z,20.87
2018-07-13T20:56:27.593Z,20.86
2018-07-13T20:58:58.881Z,20.82
2018-07-13T21:01:29.389Z,20.74
2018-07-13T21:03:58.508Z,20.76
2018-07-13T21:06:27.842Z,20.75
2018-07-13T21:08:58.685Z,20.72
2018-07-13T21:11:28.220Z,20.72
2018-07-13T21:13:57.979Z,20.73
2018-07-13T21:16:28.474Z,20.69
2018-07-13T21:18:59.060Z,20.64
2018-07-13T21:21:29.300Z,20.61
2018-07-13T21:23:58.397Z,20.58
2018-07-13T21:26:28.591Z,20.50
2018-07-13T21:28:57.645Z,20.46
2018-07-13T21:31:28.338Z,20.42
2018-07-13T21:33:57.978Z,20.35
2018-07-13T21:36:27.833Z,20.26
2018-07-13T21:38:58.881Z,20.22
2018-07-13T21:41:29.654Z,20.15
2018-07-13T21:44:00.046Z,20.09
2018-07-13T21:46:30.606Z,20.02
2018-07-13T21:49:01.143Z,19.97
2018-07-13T21:51:32.262Z,19.95
2018-07-13T21:54:01.763Z,19.89
2018-07-13T21:56:31.998Z,19.87
2018-07-13T21:59:01.496Z,19.83
2018-07-13T22:01:31.499Z,19.79
2018-07-13T22:04:01.875Z,19.75
2018-07-13T22:06:30.946Z,19.73
2018-07-13T22:09:00.321Z,19.67
2018-07-13T22:11:30.248Z,19.63
2018-07-13T22:14:00.565Z,19.57
2018-07-13T22:16:30.876Z,19.51
2018-07-13T22:19:00.880Z,19.47
2018-07-13T22:21:31.153Z,19.41
2018-07-13T22:24:01.564Z,19.37
2018-07-13T22:26:31.826Z,19.32
2018-07-13T22:29:02.594Z,19.27
2018-07-13T22:31:33.309Z,19.18
2018-07-13T22:34:03.816Z,19.13
2018-07-13T22:36:34.409Z,19.11
2018-07-13T22:39:06.426Z,19.03
2018-07-13T22:41:36.920Z,18.94
2018-07-13T22:44:07.562Z,18.85
2018-07-13T22:46:39.016Z,18.73
2018-07-13T22:49:09.154Z,18.69
2018-07-13T22:51:39.508Z,18.67
2018-07-13T22:54:09.498Z,18.68
2018-07-13T22:56:39.323Z,18.63
2018-07-13T22:59:10.087Z,18.63
2018-07-13T23:01:40.455Z,18.63
2018-07-13T23:04:10.928Z,18.62
2018-07-13T23:06:41.856Z,18.57
2018-07-13T23:09:12.232Z,18.47
2018-07-13T23:11:42.973Z,18.42
2018-07-13T23:14:13.588Z,18.32
2018-07-13T23:16:44.356Z,18.21
2018-07-13T23:19:13.931Z,18.17
2018-07-13T23:21:43.720Z,18.12
2018-07-13T23:24:14.535Z,18.12
2018-07-13T23:26:44.166Z,18.08
2018-07-13T23:29:14.893Z,18.07
2018-07-13T23:31:44.088Z,18.06
2018-07-13T23:34:14.890Z,18.05
2018-07-13T23:36:44.147Z,18.02
2018-07-13T23:39:13.295Z,18.03
2018-07-13T23:41:42.398Z,18.00
2018-07-13T23:44:12.452Z,17.98
2018-07-13T23:46:43.574Z,17.97
2018-07-13T23:49:13.364Z,17.96
2018-07-13T23:51:44.086Z,17.94
2018-07-13T23:54:13.162Z,17.90
2018-07-13T23:56:43.618Z,17.84
2018-07-13T23:59:13.804Z,17.77
